sensor_id;sensor_type;location;lat;lon;timestamp;pressure;altitude;pressure_sealevel;temperature;humidity
5522;BME280;2783;48.730;8.006;2023-04-29T00:02:06;99807.94;;;16.76;100.00
5522;BME280;2783;48.730;8.006;2023-04-29T00:04:32;99806.31;;;16.73;100.00
5522;BME280;2783;48.730;8.006;2023-04-29T00:06:58;99803.88;;;16.69;100.00
5522;BME280;2783;48.730;8.006;2023-04-29T00:09:24;99804.25;;;16.63;100.00
5522;BME280;2783;48.730;8.006;2023-04-29T00:11:49;99804.66;;;16.57;100.00
5522;BME280;2783;48.730;8.006;2023-04-29T00:14:15;99804.66;;;16.57;100.00
5522;BME280;2783;48.730;8.006;2023-04-29T00:16:41;99805.59;;;16.56;100.00
5522;BME280;2783;48.730;8.006;2023-04-29T00:19:06;99808.13;;;16.59;100.00
5522;BME280;2783;48.730;8.006;2023-04-29T00:21:31;99808.13;;;16.59;100.00
5522;BME280;2783;48.730;8.006;2023-04-29T00:23:57;99811.75;;;16.58;100.00
5522;BME280;2783;48.730;8.006;2023-04-29T00:26:22;99815.50;;;16.55;100.00
5522;BME280;2783;48.730;8.006;2023-04-29T00:28:48;99817.69;;;16.49;100.00
5522;BME280;2783;48.730;8.006;2023-04-29T00:31:13;99817.78;;;16.47;100.00
5522;BME280;2783;48.730;8.006;2023-04-29T00:33:38;99813.50;;;16.43;100.00
5522;BME280;2783;48.730;8.006;2023-04-29T00:36:05;99822.50;;;16.42;100.00
5522;BME280;2783;48.730;8.006;2023-04-29T00:38:30;99815.50;;;16.40;100.00
5522;BME280;2783;48.730;8.006;2023-04-29T00:40:55;99822.66;;;16.39;100.00
5522;BME280;2783;48.730;8.006;2023-04-29T00:43:21;99816.47;;;16.39;100.00
5522;BME280;2783;48.730;8.006;2023-04-29T00:45:46;99814.72;;;16.38;100.00
5522;BME280;2783;48.730;8.006;2023-04-29T00:48:12;99817.38;;;16.38;100.00
5522;BME280;2783;48.730;8.006;2023-04-29T00:50:39;99813.88;;;16.37;100.00
5522;BME280;2783;48.730;8.006;2023-04-29T00:53:05;99813.97;;;16.36;100.00
5522;BME280;2783;48.730;8.006;2023-04-29T00:55:32;99823.91;;;16.34;100.00
5522;BME280;2783;48.730;8.006;2023-04-29T00:57:57;99819.47;;;16.33;100.00
5522;BME280;2783;48.730;8.006;2023-04-29T01:00:23;99819.56;;;16.31;100.00
5522;BME280;2783;48.730;8.006;2023-04-29T01:02:50;99821.31;;;16.32;100.00
5522;BME280;2783;48.730;8.006;2023-04-29T01:05:16;99819.75;;;16.28;100.00
5522;BME280;2783;48.730;8.006;2023-04-29T01:07:44;99822.53;;;16.27;100.00
5522;BME280;2783;48.730;8.006;2023-04-29T01:10:20;99818.88;;;16.28;100.00
5522;BME280;2783;48.730;8.006;2023-04-29T01:15:22;99824.63;;;16.22;100.00
5522;BME280;2783;48.730;8.006;2023-04-29T01:17:54;99826.72;;;16.17;100.00
5522;BME280;2783;48.730;8.006;2023-04-29T01:20:21;99833.78;;;16.18;100.00
5522;BME280;2783;48.730;8.006;2023-04-29T01:22:46;99825.00;;;16.16;100.00
5522;BME280;2783;48.730;8.006;2023-04-29T01:25:12;99830.38;;;16.16;100.00
5522;BME280;2783;48.730;8.006;2023-04-29T01:27:43;99827.78;;;16.14;100.00
5522;BME280;2783;48.730;8.006;2023-04-29T01:40:55;99820.31;;;16.04;100.00
5522;BME280;2783;48.730;8.006;2023-04-29T01:43:23;99823.78;;;16.06;100.00
5522;BME280;2783;48.730;8.006;2023-04-29T01:45:52;99826.56;;;16.04;100.00
5522;BME280;2783;48.730;8.006;2023-04-29T01:48:20;99829.16;;;16.06;100.00
5522;BME280;2783;48.730;8.006;2023-04-29T01:50:45;99827.78;;;15.99;100.00
5522;BME280;2783;48.730;8.006;2023-04-29T01:53:11;99835.22;;;15.94;100.00
5522;BME280;2783;48.730;8.006;2023-04-29T01:55:36;99832.13;;;15.86;100.00
5522;BME280;2783;48.730;8.006;2023-04-29T01:58:02;99835.91;;;15.81;100.00
5522;BME280;2783;48.730;8.006;2023-04-29T02:00:27;99835.25;;;15.78;100.00
5522;BME280;2783;48.730;8.006;2023-04-29T02:02:52;99842.25;;;15.80;100.00
5522;BME280;2783;48.730;8.006;2023-04-29T02:05:18;99840.53;;;15.79;100.00
5522;BME280;2783;48.730;8.006;2023-04-29T02:07:44;99838.59;;;15.81;100.00
5522;BME280;2783;48.730;8.006;2023-04-29T02:10:09;99838.53;;;15.83;100.00
5522;BME280;2783;48.730;8.006;2023-04-29T02:12:35;99837.84;;;15.79;100.00
5522;BME280;2783;48.730;8.006;2023-04-29T02:15:01;99836.00;;;15.80;100.00
5522;BME280;2783;48.730;8.006;2023-04-29T02:17:26;99840.63;;;15.78;100.00
5522;BME280;2783;48.730;8.006;2023-04-29T02:19:51;99840.09;;;15.71;100.00
5522;BME280;2783;48.730;8.006;2023-04-29T02:22:19;99845.59;;;15.68;100.00
5522;BME280;2783;48.730;8.006;2023-04-29T02:24:44;99838.88;;;15.61;100.00
5522;BME280;2783;48.730;8.006;2023-04-29T02:27:09;99841.47;;;15.63;100.00
5522;BME280;2783;48.730;8.006;2023-04-29T02:29:35;99836.09;;;15.63;100.00
5522;BME280;2783;48.730;8.006;2023-04-29T02:32:00;99845.94;;;15.62;100.00
5522;BME280;2783;48.730;8.006;2023-04-29T02:34:26;99839.00;;;15.58;100.00
5522;BME280;2783;48.730;8.006;2023-04-29T02:36:51;99851.22;;;15.48;100.00
5522;BME280;2783;48.730;8.006;2023-04-29T02:39:16;99859.41;;;15.45;100.00
5522;BME280;2783;48.730;8.006;2023-04-29T02:41:41;99861.41;;;15.42;100.00
5522;BME280;2783;48.730;8.006;2023-04-29T02:44:07;99859.91;;;15.36;100.00
5522;BME280;2783;48.730;8.006;2023-04-29T02:46:32;99861.56;;;15.39;100.00
5522;BME280;2783;48.730;8.006;2023-04-29T02:48:59;99863.38;;;15.38;100.00
5522;BME280;2783;48.730;8.006;2023-04-29T02:51:24;99870.09;;;15.30;100.00
5522;BME280;2783;48.730;8.006;2023-04-29T02:53:50;99872.84;;;15.28;100.00
5522;BME280;2783;48.730;8.006;2023-04-29T02:56:16;99879.13;;;15.27;100.00
5522;BME280;2783;48.730;8.006;2023-04-29T02:58:41;99871.44;;;15.21;100.00
5522;BME280;2783;48.730;8.006;2023-04-29T03:01:06;99881.44;;;15.18;100.00
5522;BME280;2783;48.730;8.006;2023-04-29T03:03:32;99885.94;;;15.17;100.00
5522;BME280;2783;48.730;8.006;2023-04-29T03:06:15;99877.97;;;15.16;100.00
5522;BME280;2783;48.730;8.006;2023-04-29T03:08:41;99881.72;;;15.13;100.00
5522;BME280;2783;48.730;8.006;2023-04-29T03:11:06;99878.31;;;15.10;100.00
5522;BME280;2783;48.730;8.006;2023-04-29T03:13:31;99877.63;;;15.06;100.00
5522;BME280;2783;48.730;8.006;2023-04-29T03:15:56;99880.28;;;15.06;100.00
5522;BME280;2783;48.730;8.006;2023-04-29T03:18:24;99884.09;;;15.02;100.00
5522;BME280;2783;48.730;8.006;2023-04-29T03:20:49;99884.41;;;14.96;100.00
5522;BME280;2783;48.730;8.006;2023-04-29T03:23:15;99886.91;;;14.99;100.00
5522;BME280;2783;48.730;8.006;2023-04-29T03:25:40;99888.81;;;14.97;100.00
5522;BME280;2783;48.730;8.006;2023-04-29T03:28:05;99890.53;;;14.98;100.00
5522;BME280;2783;48.730;8.006;2023-04-29T03:30:31;99885.53;;;14.92;100.00
5522;BME280;2783;48.730;8.006;2023-04-29T03:32:56;99889.38;;;14.87;100.00
5522;BME280;2783;48.730;8.006;2023-04-29T03:35:22;99887.88;;;14.81;100.00
5522;BME280;2783;48.730;8.006;2023-04-29T03:37:47;99891.03;;;14.72;100.00
5522;BME280;2783;48.730;8.006;2023-04-29T03:40:12;99900.06;;;14.70;100.00
5522;BME280;2783;48.730;8.006;2023-04-29T03:42:38;99900.06;;;14.70;100.00
5522;BME280;2783;48.730;8.006;2023-04-29T03:45:03;99897.63;;;14.65;100.00
5522;BME280;2783;48.730;8.006;2023-04-29T03:47:28;99906.84;;;14.60;100.00
5522;BME280;2783;48.730;8.006;2023-04-29T03:49:54;99903.47;;;14.56;100.00
5522;BME280;2783;48.730;8.006;2023-04-29T03:52:19;99903.56;;;14.55;100.00
5522;BME280;2783;48.730;8.006;2023-04-29T03:54:44;99914.81;;;14.61;100.00
5522;BME280;2783;48.730;8.006;2023-04-29T03:57:10;99903.13;;;14.09;100.00
5522;BME280;2783;48.730;8.006;2023-04-29T03:59:35;99906.09;;;13.85;100.00
5522;BME280;2783;48.730;8.006;2023-04-29T04:02:00;99914.19;;;13.83;100.00
5522;BME280;2783;48.730;8.006;2023-04-29T04:04:26;99911.09;;;13.74;100.00
5522;BME280;2783;48.730;8.006;2023-04-29T04:06:51;99910.28;;;13.72;100.00
5522;BME280;2783;48.730;8.006;2023-04-29T04:09:16;99918.47;;;13.69;100.00
5522;BME280;2783;48.730;8.006;2023-04-29T04:11:42;99911.72;;;13.60;100.00
5522;BME280;2783;48.730;8.006;2023-04-29T04:14:07;99920.75;;;13.58;100.00
5522;BME280;2783;48.730;8.006;2023-04-29T04:16:33;99926.22;;;13.55;100.00
5522;BME280;2783;48.730;8.006;2023-04-29T04:18:58;99926.22;;;13.55;100.00
5522;BME280;2783;48.730;8.006;2023-04-29T04:21:23;99931.44;;;13.58;100.00
5522;BME280;2783;48.730;8.006;2023-04-29T04:23:49;99929.56;;;13.60;100.00
5522;BME280;2783;48.730;8.006;2023-04-29T04:26:15;99939.31;;;13.61;100.00
5522;BME280;2783;48.730;8.006;2023-04-29T04:28:40;99941.97;;;13.61;100.00
5522;BME280;2783;48.730;8.006;2023-04-29T04:31:05;99940.53;;;13.54;100.00
5522;BME280;2783;48.730;8.006;2023-04-29T04:33:31;99941.69;;;13.48;100.00
5522;BME280;2783;48.730;8.006;2023-04-29T04:35:58;99941.81;;;13.45;100.00
5522;BME280;2783;48.730;8.006;2023-04-29T04:38:23;99951.63;;;13.45;100.00
5522;BME280;2783;48.730;8.006;2023-04-29T04:40:49;99951.78;;;13.42;100.00
5522;BME280;2783;48.730;8.006;2023-04-29T04:43:15;99957.19;;;13.40;100.00
5522;BME280;2783;48.730;8.006;2023-04-29T04:45:41;99965.06;;;13.43;100.00
5522;BME280;2783;48.730;8.006;2023-04-29T04:48:06;99964.75;;;13.51;100.00
5522;BME280;2783;48.730;8.006;2023-04-29T04:50:32;99965.50;;;13.53;100.00
5522;BME280;2783;48.730;8.006;2023-04-29T04:52:57;99971.75;;;13.53;100.00
5522;BME280;2783;48.730;8.006;2023-04-29T04:55:22;99971.75;;;13.53;100.00
5522;BME280;2783;48.730;8.006;2023-04-29T04:57:48;99970.78;;;13.54;100.00
5522;BME280;2783;48.730;8.006;2023-04-29T05:00:13;99983.31;;;13.54;100.00
5522;BME280;2783;48.730;8.006;2023-04-29T05:02:39;99984.16;;;13.54;100.00
5522;BME280;2783;48.730;8.006;2023-04-29T05:05:04;99989.56;;;13.53;100.00
5522;BME280;2783;48.730;8.006;2023-04-29T05:07:29;99992.97;;;13.56;100.00
5522;BME280;2783;48.730;8.006;2023-04-29T05:09:55;99991.91;;;13.60;100.00
5522;BME280;2783;48.730;8.006;2023-04-29T05:12:20;100000.78;;;13.61;100.00
5522;BME280;2783;48.730;8.006;2023-04-29T05:14:45;99994.22;;;13.68;100.00
5522;BME280;2783;48.730;8.006;2023-04-29T05:17:11;99997.16;;;13.82;100.00
5522;BME280;2783;48.730;8.006;2023-04-29T05:19:36;99997.38;;;13.96;100.00
5522;BME280;2783;48.730;8.006;2023-04-29T05:22:01;99996.44;;;13.97;100.00
5522;BME280;2783;48.730;8.006;2023-04-29T05:24:27;100004.78;;;14.28;100.00
5522;BME280;2783;48.730;8.006;2023-04-29T05:26:53;100008.28;;;14.83;100.00
5522;BME280;2783;48.730;8.006;2023-04-29T05:29:18;99997.06;;;15.27;100.00
5522;BME280;2783;48.730;8.006;2023-04-29T05:31:44;100007.31;;;15.53;100.00
5522;BME280;2783;48.730;8.006;2023-04-29T05:34:09;100010.94;;;15.52;100.00
5522;BME280;2783;48.730;8.006;2023-04-29T05:36:35;100017.09;;;15.54;100.00
5522;BME280;2783;48.730;8.006;2023-04-29T05:39:00;100018.00;;;15.88;100.00
5522;BME280;2783;48.730;8.006;2023-04-29T05:41:25;100020.28;;;16.11;100.00
5522;BME280;2783;48.730;8.006;2023-04-29T05:43:51;100019.69;;;16.37;99.20
5522;BME280;2783;48.730;8.006;2023-04-29T05:46:16;100029.09;;;16.45;97.91
5522;BME280;2783;48.730;8.006;2023-04-29T05:48:42;100023.09;;;16.71;98.39
5522;BME280;2783;48.730;8.006;2023-04-29T05:51:07;100033.59;;;17.21;95.62
5522;BME280;2783;48.730;8.006;2023-04-29T05:53:32;100038.91;;;17.07;92.77
5522;BME280;2783;48.730;8.006;2023-04-29T05:55:58;100052.03;;;16.51;90.94
5522;BME280;2783;48.730;8.006;2023-04-29T05:58:23;100048.19;;;16.24;93.76
5522;BME280;2783;48.730;8.006;2023-04-29T06:00:49;100053.53;;;16.24;94.53
5522;BME280;2783;48.730;8.006;2023-04-29T06:03:15;100057.84;;;16.11;94.44
5522;BME280;2783;48.730;8.006;2023-04-29T06:05:40;100063.69;;;16.02;95.21
5522;BME280;2783;48.730;8.006;2023-04-29T06:08:06;100065.59;;;16.00;94.88
5522;BME280;2783;48.730;8.006;2023-04-29T06:10:31;100062.31;;;15.95;95.36
5522;BME280;2783;48.730;8.006;2023-04-29T06:12:57;100062.88;;;16.17;96.12
5522;BME280;2783;48.730;8.006;2023-04-29T06:15:22;100060.81;;;16.22;95.30
5522;BME280;2783;48.730;8.006;2023-04-29T06:17:48;100059.00;;;16.38;96.71
5522;BME280;2783;48.730;8.006;2023-04-29T06:20:13;100060.19;;;16.49;96.14
5522;BME280;2783;48.730;8.006;2023-04-29T06:22:38;100068.75;;;16.56;95.61
5522;BME280;2783;48.730;8.006;2023-04-29T06:25:03;100064.88;;;16.61;94.87
5522;BME280;2783;48.730;8.006;2023-04-29T06:27:29;100064.09;;;16.59;92.72
5522;BME280;2783;48.730;8.006;2023-04-29T06:29:54;100057.94;;;16.73;93.28
5522;BME280;2783;48.730;8.006;2023-04-29T06:32:20;100072.13;;;16.90;93.56
5522;BME280;2783;48.730;8.006;2023-04-29T06:34:45;100074.38;;;16.98;93.16
5522;BME280;2783;48.730;8.006;2023-04-29T06:37:11;100071.34;;;17.04;92.26
5522;BME280;2783;48.730;8.006;2023-04-29T06:39:36;100078.09;;;17.11;91.17
5522;BME280;2783;48.730;8.006;2023-04-29T06:42:01;100072.00;;;17.23;91.59
5522;BME280;2783;48.730;8.006;2023-04-29T06:44:27;100070.66;;;17.30;91.20
5522;BME280;2783;48.730;8.006;2023-04-29T06:46:52;100071.38;;;17.49;89.86
5522;BME280;2783;48.730;8.006;2023-04-29T06:49:18;100079.66;;;17.60;88.64
5522;BME280;2783;48.730;8.006;2023-04-29T06:51:43;100081.03;;;17.67;87.78
5522;BME280;2783;48.730;8.006;2023-04-29T06:54:08;100091.91;;;17.50;85.52
5522;BME280;2783;48.730;8.006;2023-04-29T06:56:34;100089.53;;;17.60;85.61
5522;BME280;2783;48.730;8.006;2023-04-29T06:58:59;100098.84;;;17.84;85.64
5522;BME280;2783;48.730;8.006;2023-04-29T07:01:24;100097.50;;;18.05;82.42
5522;BME280;2783;48.730;8.006;2023-04-29T07:03:49;100092.19;;;17.89;81.02
5522;BME280;2783;48.730;8.006;2023-04-29T07:06:15;100093.50;;;18.12;79.06
5522;BME280;2783;48.730;8.006;2023-04-29T07:08:40;100087.72;;;18.60;80.38
5522;BME280;2783;48.730;8.006;2023-04-29T07:11:06;100091.78;;;18.94;78.35
5522;BME280;2783;48.730;8.006;2023-04-29T07:13:31;100094.06;;;19.00;76.92
5522;BME280;2783;48.730;8.006;2023-04-29T07:15:56;100096.84;;;19.12;75.61
5522;BME280;2783;48.730;8.006;2023-04-29T07:18:21;100093.63;;;19.34;75.55
5522;BME280;2783;48.730;8.006;2023-04-29T07:20:47;100100.09;;;19.44;74.70
5522;BME280;2783;48.730;8.006;2023-04-29T07:23:13;100098.47;;;19.81;75.02
5522;BME280;2783;48.730;8.006;2023-04-29T07:25:38;100102.41;;;20.14;73.07
5522;BME280;2783;48.730;8.006;2023-04-29T07:28:04;100110.31;;;20.17;71.99
5522;BME280;2783;48.730;8.006;2023-04-29T07:30:29;100107.59;;;20.17;67.90
5522;BME280;2783;48.730;8.006;2023-04-29T07:32:54;100109.31;;;19.93;67.29
5522;BME280;2783;48.730;8.006;2023-04-29T07:35:20;100116.69;;;20.29;70.20
5522;BME280;2783;48.730;8.006;2023-04-29T07:37:46;100111.34;;;20.65;68.68
5522;BME280;2783;48.730;8.006;2023-04-29T07:40:12;100114.38;;;20.48;65.89
5522;BME280;2783;48.730;8.006;2023-04-29T07:42:37;100103.47;;;20.62;67.30
5522;BME280;2783;48.730;8.006;2023-04-29T07:45:03;100111.84;;;20.82;67.26
5522;BME280;2783;48.730;8.006;2023-04-29T07:47:28;100109.16;;;21.19;64.89
5522;BME280;2783;48.730;8.006;2023-04-29T07:49:53;100114.78;;;21.28;64.21
5522;BME280;2783;48.730;8.006;2023-04-29T07:52:19;100118.22;;;21.54;62.37
5522;BME280;2783;48.730;8.006;2023-04-29T07:54:44;100114.63;;;21.53;63.78
5522;BME280;2783;48.730;8.006;2023-04-29T07:57:09;100115.22;;;21.69;63.28
5522;BME280;2783;48.730;8.006;2023-04-29T07:59:35;100120.81;;;21.55;61.36
5522;BME280;2783;48.730;8.006;2023-04-29T08:02:00;100121.97;;;21.17;61.69
5522;BME280;2783;48.730;8.006;2023-04-29T08:04:25;100130.06;;;21.40;62.10
5522;BME280;2783;48.730;8.006;2023-04-29T08:06:51;100136.66;;;22.07;61.48
5522;BME280;2783;48.730;8.006;2023-04-29T08:09:16;100127.72;;;21.83;58.50
5522;BME280;2783;48.730;8.006;2023-04-29T08:11:42;100136.22;;;21.19;58.19
5522;BME280;2783;48.730;8.006;2023-04-29T08:14:07;100138.84;;;21.20;61.28
5522;BME280;2783;48.730;8.006;2023-04-29T08:16:33;100137.00;;;21.68;60.74
5522;BME280;2783;48.730;8.006;2023-04-29T08:18:58;100136.28;;;22.00;58.74
5522;BME280;2783;48.730;8.006;2023-04-29T08:21:23;100139.06;;;21.88;58.45
5522;BME280;2783;48.730;8.006;2023-04-29T08:23:49;100145.34;;;20.92;53.78
5522;BME280;2783;48.730;8.006;2023-04-29T08:26:14;100145.19;;;20.70;59.12
5522;BME280;2783;48.730;8.006;2023-04-29T08:28:39;100158.09;;;20.29;60.71
5522;BME280;2783;48.730;8.006;2023-04-29T08:31:05;100149.69;;;19.95;62.53
5522;BME280;2783;48.730;8.006;2023-04-29T08:33:34;100159.97;;;19.63;63.96
5522;BME280;2783;48.730;8.006;2023-04-29T08:36:00;100142.88;;;19.50;64.55
5522;BME280;2783;48.730;8.006;2023-04-29T08:38:27;100142.94;;;19.22;64.86
5522;BME280;2783;48.730;8.006;2023-04-29T08:40:52;100145.06;;;19.57;64.84
5522;BME280;2783;48.730;8.006;2023-04-29T08:43:18;100143.31;;;20.08;67.35
5522;BME280;2783;48.730;8.006;2023-04-29T08:45:44;100133.53;;;20.57;59.76
5522;BME280;2783;48.730;8.006;2023-04-29T08:48:12;100136.19;;;20.82;57.31
5522;BME280;2783;48.730;8.006;2023-04-29T08:50:38;100145.38;;;21.05;57.92
5522;BME280;2783;48.730;8.006;2023-04-29T08:53:08;100136.72;;;20.87;55.28
5522;BME280;2783;48.730;8.006;2023-04-29T08:55:40;100150.41;;;20.48;55.72
5522;BME280;2783;48.730;8.006;2023-04-29T08:58:06;100149.53;;;20.35;59.35
5522;BME280;2783;48.730;8.006;2023-04-29T09:00:32;100151.59;;;20.57;59.78
5522;BME280;2783;48.730;8.006;2023-04-29T09:02:58;100147.31;;;20.90;59.16
5522;BME280;2783;48.730;8.006;2023-04-29T09:05:24;100160.75;;;20.54;56.30
5522;BME280;2783;48.730;8.006;2023-04-29T09:07:51;100159.63;;;20.94;55.32
5522;BME280;2783;48.730;8.006;2023-04-29T09:10:17;100156.38;;;22.09;56.23
5522;BME280;2783;48.730;8.006;2023-04-29T09:12:42;100150.28;;;22.40;52.92
5522;BME280;2783;48.730;8.006;2023-04-29T09:15:07;100156.16;;;22.23;53.39
5522;BME280;2783;48.730;8.006;2023-04-29T09:22:56;100168.09;;;20.90;56.69
5522;BME280;2783;48.730;8.006;2023-04-29T09:25:22;100161.81;;;20.89;57.05
5522;BME280;2783;48.730;8.006;2023-04-29T09:27:47;100157.50;;;20.74;56.91
5522;BME280;2783;48.730;8.006;2023-04-29T09:30:12;100160.41;;;20.84;56.75
5522;BME280;2783;48.730;8.006;2023-04-29T09:32:40;100171.78;;;20.51;57.23
5522;BME280;2783;48.730;8.006;2023-04-29T09:35:21;100171.50;;;19.92;57.52
5522;BME280;2783;48.730;8.006;2023-04-29T09:37:48;100163.47;;;19.90;58.27
5522;BME280;2783;48.730;8.006;2023-04-29T09:40:32;100177.06;;;19.76;55.01
5522;BME280;2783;48.730;8.006;2023-04-29T09:42:58;100165.22;;;20.55;56.37
5522;BME280;2783;48.730;8.006;2023-04-29T09:48:02;100169.81;;;20.91;52.73
5522;BME280;2783;48.730;8.006;2023-04-29T09:50:28;100169.06;;;21.02;53.04
5522;BME280;2783;48.730;8.006;2023-04-29T09:52:53;100168.06;;;21.15;50.81
5522;BME280;2783;48.730;8.006;2023-04-29T09:55:19;100161.47;;;21.43;52.17
5522;BME280;2783;48.730;8.006;2023-04-29T09:57:44;100159.84;;;21.64;53.65
5522;BME280;2783;48.730;8.006;2023-04-29T10:00:10;100162.75;;;21.50;53.54
5522;BME280;2783;48.730;8.006;2023-04-29T10:02:36;100157.13;;;21.17;51.63
5522;BME280;2783;48.730;8.006;2023-04-29T10:05:05;100164.16;;;20.94;53.28
5522;BME280;2783;48.730;8.006;2023-04-29T10:07:31;100160.31;;;20.73;55.33
5522;BME280;2783;48.730;8.006;2023-04-29T10:09:56;100160.97;;;20.76;55.29
5522;BME280;2783;48.730;8.006;2023-04-29T10:12:22;100163.81;;;20.62;57.62
5522;BME280;2783;48.730;8.006;2023-04-29T10:15:02;100155.78;;;20.73;55.28
5522;BME280;2783;48.730;8.006;2023-04-29T10:17:45;100156.84;;;20.83;56.94
5522;BME280;2783;48.730;8.006;2023-04-29T10:20:14;100164.44;;;20.78;55.37
5522;BME280;2783;48.730;8.006;2023-04-29T10:22:46;100174.81;;;20.59;56.65
5522;BME280;2783;48.730;8.006;2023-04-29T10:25:12;100168.66;;;20.32;54.99
5522;BME280;2783;48.730;8.006;2023-04-29T10:27:41;100172.47;;;20.42;56.13
5522;BME280;2783;48.730;8.006;2023-04-29T10:30:07;100166.72;;;20.72;53.52
5522;BME280;2783;48.730;8.006;2023-04-29T10:32:33;100158.84;;;21.18;54.72
5522;BME280;2783;48.730;8.006;2023-04-29T10:34:58;100158.59;;;21.57;50.48
5522;BME280;2783;48.730;8.006;2023-04-29T10:37:24;100156.53;;;21.84;50.81
5522;BME280;2783;48.730;8.006;2023-04-29T10:40:00;100151.34;;;21.81;47.14
5522;BME280;2783;48.730;8.006;2023-04-29T10:42:42;100147.66;;;22.28;51.14
5522;BME280;2783;48.730;8.006;2023-04-29T10:45:20;100146.34;;;22.44;51.40
5522;BME280;2783;48.730;8.006;2023-04-29T10:51:12;100146.72;;;21.94;48.90
5522;BME280;2783;48.730;8.006;2023-04-29T10:53:13;100143.91;;;21.95;51.28
5522;BME280;2783;48.730;8.006;2023-04-29T10:55:39;100144.94;;;22.73;48.70
5522;BME280;2783;48.730;8.006;2023-04-29T10:58:05;100136.50;;;22.98;48.71
5522;BME280;2783;48.730;8.006;2023-04-29T11:00:31;100133.66;;;23.00;50.77
5522;BME280;2783;48.730;8.006;2023-04-29T11:02:57;100141.94;;;22.87;49.41
5522;BME280;2783;48.730;8.006;2023-04-29T11:05:33;100135.81;;;22.63;47.94
5522;BME280;2783;48.730;8.006;2023-04-29T11:08:10;100135.75;;;22.41;49.87
5522;BME280;2783;48.730;8.006;2023-04-29T11:10:36;100131.50;;;22.04;49.38
5522;BME280;2783;48.730;8.006;2023-04-29T11:15:47;100136.63;;;21.96;54.07
5522;BME280;2783;48.730;8.006;2023-04-29T11:18:12;100135.03;;;21.93;51.71
5522;BME280;2783;48.730;8.006;2023-04-29T11:23:25;100125.31;;;21.91;52.37
5522;BME280;2783;48.730;8.006;2023-04-29T11:25:51;100138.78;;;21.80;51.98
5522;BME280;2783;48.730;8.006;2023-04-29T11:28:17;100136.78;;;22.73;50.31
5522;BME280;2783;48.730;8.006;2023-04-29T11:30:42;100137.47;;;24.05;44.83
5522;BME280;2783;48.730;8.006;2023-04-29T11:33:09;100126.06;;;24.82;45.31
5522;BME280;2783;48.730;8.006;2023-04-29T11:35:34;100126.25;;;25.39;43.63
5522;BME280;2783;48.730;8.006;2023-04-29T11:38:03;100127.56;;;25.35;43.28
5522;BME280;2783;48.730;8.006;2023-04-29T11:40:29;100130.31;;;25.05;43.53
5522;BME280;2783;48.730;8.006;2023-04-29T11:42:56;100141.56;;;24.40;42.53
5522;BME280;2783;48.730;8.006;2023-04-29T11:45:21;100142.03;;;23.73;43.63
5522;BME280;2783;48.730;8.006;2023-04-29T11:47:47;100129.22;;;23.32;46.20
5522;BME280;2783;48.730;8.006;2023-04-29T11:50:13;100137.13;;;22.69;45.37
5522;BME280;2783;48.730;8.006;2023-04-29T11:52:40;100143.63;;;22.33;48.54
5522;BME280;2783;48.730;8.006;2023-04-29T11:55:08;100139.69;;;22.37;51.35
5522;BME280;2783;48.730;8.006;2023-04-29T11:57:34;100140.91;;;22.22;51.42
5522;BME280;2783;48.730;8.006;2023-04-29T12:00:00;100137.50;;;22.07;49.65
5522;BME280;2783;48.730;8.006;2023-04-29T12:02:32;100148.44;;;21.95;52.34
5522;BME280;2783;48.730;8.006;2023-04-29T12:04:58;100140.28;;;21.84;52.00
5522;BME280;2783;48.730;8.006;2023-04-29T12:07:25;100150.53;;;21.68;51.98
5522;BME280;2783;48.730;8.006;2023-04-29T12:09:50;100150.06;;;21.74;53.20
5522;BME280;2783;48.730;8.006;2023-04-29T12:12:15;100148.84;;;21.78;51.36
5522;BME280;2783;48.730;8.006;2023-04-29T12:14:41;100142.47;;;21.79;53.42
5522;BME280;2783;48.730;8.006;2023-04-29T12:17:07;100150.06;;;21.74;51.97
5522;BME280;2783;48.730;8.006;2023-04-29T12:19:33;100143.34;;;21.79;53.39
5522;BME280;2783;48.730;8.006;2023-04-29T12:21:59;100154.19;;;21.79;50.01
5522;BME280;2783;48.730;8.006;2023-04-29T12:24:25;100140.94;;;21.75;50.57
5522;BME280;2783;48.730;8.006;2023-04-29T12:26:50;100151.81;;;21.51;47.73
5522;BME280;2783;48.730;8.006;2023-04-29T12:29:15;100146.16;;;21.31;51.35
5522;BME280;2783;48.730;8.006;2023-04-29T12:31:40;100150.28;;;21.47;52.71
5522;BME280;2783;48.730;8.006;2023-04-29T12:34:06;100144.53;;;21.52;54.20
5522;BME280;2783;48.730;8.006;2023-04-29T12:36:32;100145.13;;;21.68;54.34
5522;BME280;2783;48.730;8.006;2023-04-29T12:38:57;100145.84;;;21.70;54.60
5522;BME280;2783;48.730;8.006;2023-04-29T12:41:36;100143.41;;;22.01;54.76
5522;BME280;2783;48.730;8.006;2023-04-29T12:44:02;100147.53;;;22.29;53.94
5522;BME280;2783;48.730;8.006;2023-04-29T12:46:28;100146.28;;;22.57;51.89
5522;BME280;2783;48.730;8.006;2023-04-29T12:48:58;100150.81;;;22.67;51.35
5522;BME280;2783;48.730;8.006;2023-04-29T12:51:25;100152.91;;;22.64;50.19
5522;BME280;2783;48.730;8.006;2023-04-29T12:53:51;100153.13;;;23.05;50.48
5522;BME280;2783;48.730;8.006;2023-04-29T12:56:16;100153.03;;;23.17;48.02
5522;BME280;2783;48.730;8.006;2023-04-29T12:58:42;100150.69;;;23.67;49.65
5522;BME280;2783;48.730;8.006;2023-04-29T13:01:07;100157.81;;;24.31;47.10
5522;BME280;2783;48.730;8.006;2023-04-29T13:03:32;100147.44;;;24.66;46.61
5522;BME280;2783;48.730;8.006;2023-04-29T13:05:58;100168.28;;;24.56;45.42
5522;BME280;2783;48.730;8.006;2023-04-29T13:08:23;100168.44;;;23.71;49.90
5522;BME280;2783;48.730;8.006;2023-04-29T13:10:48;100157.09;;;22.79;52.40
5522;BME280;2783;48.730;8.006;2023-04-29T13:13:14;100159.63;;;22.25;55.15
5522;BME280;2783;48.730;8.006;2023-04-29T13:15:40;100156.78;;;21.81;57.89
5522;BME280;2783;48.730;8.006;2023-04-29T13:18:05;100161.72;;;21.40;58.73
5522;BME280;2783;48.730;8.006;2023-04-29T13:20:30;100159.53;;;21.09;59.74
5522;BME280;2783;48.730;8.006;2023-04-29T13:22:57;100167.63;;;20.96;62.22
5522;BME280;2783;48.730;8.006;2023-04-29T13:25:22;100169.63;;;20.56;63.02
5522;BME280;2783;48.730;8.006;2023-04-29T13:27:47;100169.63;;;20.19;62.52
5522;BME280;2783;48.730;8.006;2023-04-29T13:30:13;100171.63;;;20.03;65.08
5522;BME280;2783;48.730;8.006;2023-04-29T13:32:39;100167.75;;;19.67;65.61
5522;BME280;2783;48.730;8.006;2023-04-29T13:35:06;100171.19;;;19.57;67.01